Francisco Morato, Brazil
Current Conditions -  °F | °C
As of 11:00 PM on Thursday 23 Oct 2014 (Local Time) from SBMT Reporting Station
Haze Haze  
Wind Chill: 66°   Ceiling: Unl
Heat Index: 66°   Visibility: 1.8mi
Dew Point: 59°   Wind: 7mph
Humidity: 78%   Direction: 100°E
Pressure: 30.12"   Gusts: NA
Location:  23.27°S, 46.75°W
Report Text: SBMT 240100Z 10006KT 3000 BR NSC 19/15 Q1020
Loading
Personal Weather Stations






























Interactive Weather Map
Tropical Storm Tracking
New forecast layout! Learn more

10-Day Weather Forecast

Advertisements
Track Severe Weather on mobile